Time;durP1;ratioP1;P1;durP2;ratioP2;P2;SDS_P1;SDS_P2;PMS_P1;PMS_P2;Temp;Humidity;BMP_temperature;BMP_pressure;BME280_temperature;BME280_humidity;BME280_pressure;Samples;Min_cycle;Max_cycle;Signal;HPM_P1;HPM_P2
2022/07/30 00:58:29;;;;;;;6.68;4.10;;;;;;;;;;6195452;23;20206;-88
2022/07/30 01:01:35;;;;;;;6.78;3.90;;;;;;;;;;6180143;23;20176;-88
2022/07/30 01:04:41;;;;;;;8.20;4.15;;;;;;;;;;6178254;23;20188;-88
2022/07/30 01:07:50;;;;;;;5.43;3.45;;;;;;;;;;6178642;23;20490;-88
2022/07/30 01:10:55;;;;;;;6.63;3.42;;;;;;;;;;6178580;23;20260;-89
2022/07/30 01:14:03;;;;;;;10.02;3.85;;;;;;;;;;6177725;23;20171;-89
2022/07/30 01:17:08;;;;;;;6.93;3.95;;;;;;;;;;6179256;23;20192;-87
2022/07/30 01:20:16;;;;;;;6.72;3.80;;;;;;;;;;6180342;23;20594;-89
2022/07/30 01:23:26;;;;;;;8.13;3.30;;;;;;;;;;6198210;23;20171;-89
2022/07/30 01:26:34;;;;;;;5.32;3.50;;;;;;;;;;6178702;23;20243;-89
2022/07/30 01:29:40;;;;;;;8.30;3.40;;;;;;;;;;6179641;23;20191;-89
2022/07/30 01:32:44;;;;;;;6.60;3.50;;;;;;;;;;6181215;23;20172;-89
2022/07/30 01:35:50;;;;;;;4.90;3.47;;;;;;;;;;6178827;23;20180;-89
2022/07/30 01:38:55;;;;;;;6.53;3.60;;;;;;;;;;6176997;23;20251;-90
2022/07/30 01:42:06;;;;;;;8.85;3.47;;;;;;;;;;6177039;23;20191;-90
2022/07/30 01:45:24;;;;;;;8.88;3.60;;;;;;;;;;6175798;23;20172;-87
2022/07/30 01:48:30;;;;;;;6.07;3.88;;;;;;;;;;6177069;23;20168;-89
2022/07/30 01:51:35;;;;;;;5.47;3.78;;;;;;;;;;6177192;23;20243;-89
2022/07/30 01:54:42;;;;;;;7.25;3.55;;;;;;;;;;6178090;23;20192;-89
2022/07/30 01:57:51;;;;;;;4.40;3.35;;;;;;;;;;6177883;23;20308;-89
2022/07/30 02:00:58;;;;;;;5.22;3.50;;;;;;;;;;6193998;23;20262;-89
2022/07/30 02:04:05;;;;;;;7.95;4.10;;;;;;;;;;6175326;23;20291;-89
2022/07/30 02:07:15;;;;;;;7.22;4.40;;;;;;;;;;6177086;23;20168;-89
2022/07/30 02:10:24;;;;;;;9.27;4.22;;;;;;;;;;6176583;23;20513;-89
2022/07/30 02:13:31;;;;;;;5.60;3.67;;;;;;;;;;6176628;23;20969;-89
2022/07/30 02:16:40;;;;;;;5.93;3.75;;;;;;;;;;6175399;23;20168;-90
2022/07/30 02:19:50;;;;;;;5.45;3.80;;;;;;;;;;6174915;23;20167;-89
2022/07/30 02:22:57;;;;;;;7.90;4.00;;;;;;;;;;6174731;23;20211;-89
2022/07/30 02:26:04;;;;;;;9.00;4.15;;;;;;;;;;6174831;23;20176;-89
2022/07/30 02:29:11;;;;;;;5.82;4.40;;;;;;;;;;6175714;23;20167;-89
2022/07/30 02:32:20;;;;;;;9.30;4.78;;;;;;;;;;6174486;23;20519;-89
2022/07/30 02:35:30;;;;;;;7.93;4.43;;;;;;;;;;6175167;23;20172;-89
2022/07/30 02:38:37;;;;;;;5.00;3.63;;;;;;;;;;6177001;23;20195;-88
2022/07/30 02:41:43;;;;;;;4.57;3.72;;;;;;;;;;6175640;23;20172;-91
2022/07/30 02:44:51;;;;;;;8.43;4.22;;;;;;;;;;6177241;23;20167;-88
2022/07/30 02:47:59;;;;;;;8.95;4.40;;;;;;;;;;6175511;23;20164;-87
2022/07/30 02:51:04;;;;;;;10.05;4.78;;;;;;;;;;6176473;23;20171;-89
2022/07/30 02:54:10;;;;;;;9.90;5.03;;;;;;;;;;6175824;23;20167;-89
2022/07/30 02:57:16;;;;;;;8.07;4.43;;;;;;;;;;6162603;23;20207;-88
2022/07/30 03:00:24;;;;;;;8.75;4.85;;;;;;;;;;6163106;23;20564;-88
2022/07/30 03:03:30;;;;;;;6.82;5.05;;;;;;;;;;6160968;23;20185;-87
2022/07/30 03:06:35;;;;;;;8.18;4.90;;;;;;;;;;6162823;23;20176;-88
2022/07/30 03:09:43;;;;;;;8.07;5.03;;;;;;;;;;6161109;23;20598;-89
2022/07/30 03:12:50;;;;;;;9.82;5.93;;;;;;;;;;6161392;23;20201;-88
2022/07/30 03:15:59;;;;;;;8.00;5.85;;;;;;;;;;6162128;23;20172;-88
2022/07/30 03:19:07;;;;;;;9.27;5.38;;;;;;;;;;6161477;23;20731;-89
2022/07/30 03:22:13;;;;;;;7.47;5.32;;;;;;;;;;6162241;23;20169;-88
2022/07/30 03:25:20;;;;;;;8.77;5.80;;;;;;;;;;6161170;23;20181;-88
2022/07/30 03:28:26;;;;;;;11.50;5.43;;;;;;;;;;6161425;23;20165;-88
2022/07/30 03:31:33;;;;;;;7.53;5.13;;;;;;;;;;6160931;23;20579;-87
2022/07/30 03:34:38;;;;;;;7.53;5.40;;;;;;;;;;6161239;23;20180;-88
2022/07/30 03:37:43;;;;;;;6.47;4.97;;;;;;;;;;6162398;23;20292;-89
2022/07/30 03:40:48;;;;;;;7.68;4.97;;;;;;;;;;6162739;23;20652;-88
2022/07/30 03:43:54;;;;;;;6.53;4.45;;;;;;;;;;6163145;23;20612;-88
2022/07/30 03:47:01;;;;;;;7.18;4.60;;;;;;;;;;6162722;23;20252;-89
2022/07/30 03:50:06;;;;;;;11.18;4.30;;;;;;;;;;6162068;23;20288;-89
2022/07/30 03:53:14;;;;;;;9.85;4.30;;;;;;;;;;6161649;23;20184;-88
2022/07/30 03:56:42;;;;;;;8.20;4.13;;;;;;;;;;6178394;23;20614;-89
2022/07/30 04:00:09;;;;;;;8.25;4.72;;;;;;;;;;6174853;23;20172;-89
2022/07/30 04:03:26;;;;;;;5.72;4.15;;;;;;;;;;6191859;23;20168;-89
2022/07/30 04:06:38;;;;;;;6.97;4.45;;;;;;;;;;6174804;23;20172;-88
2022/07/30 04:09:43;;;;;;;10.40;4.72;;;;;;;;;;6173298;23;20167;-89
2022/07/30 04:13:10;;;;;;;5.95;3.65;;;;;;;;;;6173592;23;20176;-88
2022/07/30 04:16:19;;;;;;;9.13;4.18;;;;;;;;;;6174400;23;20225;-89
2022/07/30 04:19:26;;;;;;;7.70;4.22;;;;;;;;;;6175034;23;20156;-88
2022/07/30 04:22:33;;;;;;;7.72;4.22;;;;;;;;;;6174299;23;20175;-89
2022/07/30 04:25:38;;;;;;;5.93;4.22;;;;;;;;;;6174483;23;20187;-89
2022/07/30 04:28:43;;;;;;;7.18;4.47;;;;;;;;;;6176821;23;20164;-88
2022/07/30 04:31:49;;;;;;;5.15;3.50;;;;;;;;;;6175978;23;20521;-88
2022/07/30 04:35:29;;;;;;;4.95;3.72;;;;;;;;;;6175799;23;20616;-88
2022/07/30 04:38:52;;;;;;;5.00;3.65;;;;;;;;;;6177141;23;20188;-88
2022/07/30 04:41:57;;;;;;;6.07;3.63;;;;;;;;;;6177576;23;20176;-89
2022/07/30 04:45:13;;;;;;;11.23;3.67;;;;;;;;;;6175937;23;20169;-89
2022/07/30 04:48:28;;;;;;;5.93;3.53;;;;;;;;;;6176871;23;20696;-88
2022/07/30 04:52:04;;;;;;;6.20;3.33;;;;;;;;;;6195543;23;20198;-88
2022/07/30 04:55:10;;;;;;;7.40;3.40;;;;;;;;;;6176723;23;20184;-90
2022/07/30 04:58:18;;;;;;;6.40;3.58;;;;;;;;;;6174587;23;20187;-88
2022/07/30 05:01:25;;;;;;;8.10;3.67;;;;;;;;;;6175674;23;20153;-88
2022/07/30 05:04:32;;;;;;;4.20;3.17;;;;;;;;;;6175903;23;20486;-89
2022/07/30 05:07:39;;;;;;;7.75;3.72;;;;;;;;;;6174409;23;20163;-89
2022/07/30 05:10:47;;;;;;;7.90;3.50;;;;;;;;;;6175665;23;20171;-88
2022/07/30 05:13:53;;;;;;;8.25;4.00;;;;;;;;;;6174736;23;20171;-88
2022/07/30 05:17:00;;;;;;;10.18;3.58;;;;;;;;;;6178331;23;20216;-89
2022/07/30 05:20:06;;;;;;;9.45;3.70;;;;;;;;;;6177515;23;20192;-89
2022/07/30 05:23:30;;;;;;;5.80;3.45;;;;;;;;;;6175173;23;20173;-90
2022/07/30 05:27:10;;;;;;;9.00;3.75;;;;;;;;;;6192632;23;20263;-89
2022/07/30 05:30:16;;;;;;;7.05;3.30;;;;;;;;;;6175002;23;20183;-90
2022/07/30 05:33:25;;;;;;;4.55;3.40;;;;;;;;;;6176283;23;20211;-89
2022/07/30 05:36:30;;;;;;;6.20;3.30;;;;;;;;;;6175638;23;20695;-89
2022/07/30 05:39:36;;;;;;;6.47;3.53;;;;;;;;;;6175744;23;20207;-90
2022/07/30 05:43:01;;;;;;;8.13;3.30;;;;;;;;;;6193571;23;20171;-89
2022/07/30 05:46:06;;;;;;;9.63;3.95;;;;;;;;;;6176241;23;20914;-89
2022/07/30 05:49:14;;;;;;;7.93;4.60;;;;;;;;;;6178571;23;20178;-88
2022/07/30 05:52:20;;;;;;;7.03;3.50;;;;;;;;;;6179101;23;20175;-89
2022/07/30 05:55:26;;;;;;;6.72;3.50;;;;;;;;;;6177810;23;20168;-88
2022/07/30 05:58:41;;;;;;;12.15;4.15;;;;;;;;;;6177403;23;20200;-90
2022/07/30 06:01:47;;;;;;;21.27;5.22;;;;;;;;;;6177188;23;20167;-89
2022/07/30 06:04:58;;;;;;;11.18;4.50;;;;;;;;;;6179433;23;20184;-91
2022/07/30 06:08:05;;;;;;;6.72;3.97;;;;;;;;;;6178943;23;20628;-89
2022/07/30 06:11:12;;;;;;;6.95;3.88;;;;;;;;;;6177478;23;20180;-88
2022/07/30 06:14:22;;;;;;;8.75;3.83;;;;;;;;;;6176761;23;20620;-89
2022/07/30 06:17:27;;;;;;;6.93;3.90;;;;;;;;;;6178464;23;20200;-89
2022/07/30 06:20:52;;;;;;;5.85;3.85;;;;;;;;;;6179010;23;20172;-91
2022/07/30 06:24:16;;;;;;;7.03;4.32;;;;;;;;;;6179319;23;20172;-89
2022/07/30 06:27:35;;;;;;;9.35;4.25;;;;;;;;;;6178712;23;20179;-89
2022/07/30 06:30:40;;;;;;;5.93;4.18;;;;;;;;;;6177804;23;20191;-90
2022/07/30 06:33:46;;;;;;;7.28;4.60;;;;;;;;;;6179461;23;20503;-88
2022/07/30 06:36:53;;;;;;;6.68;4.25;;;;;;;;;;6179153;23;20331;-89
2022/07/30 06:39:59;;;;;;;5.90;4.18;;;;;;;;;;6187078;23;20288;-90
2022/07/30 06:43:30;;;;;;;7.63;4.10;;;;;;;;;;6177794;23;20615;-90
2022/07/30 06:47:00;;;;;;;6.45;4.05;;;;;;;;;;6177837;23;20168;-89
2022/07/30 06:50:10;;;;;;;9.98;4.78;;;;;;;;;;6176692;23;20167;-89
2022/07/30 06:53:15;;;;;;;9.25;5.28;;;;;;;;;;6180825;23;20175;-89
2022/07/30 06:56:42;;;;;;;7.30;4.40;;;;;;;;;;6198511;23;20199;-89
2022/07/30 06:59:49;;;;;;;9.35;5.32;;;;;;;;;;6181382;23;20195;-89
2022/07/30 07:02:59;;;;;;;10.27;5.10;;;;;;;;;;6179902;23;20155;-88
2022/07/30 07:06:13;;;;;;;7.53;5.00;;;;;;;;;;6182164;23;20172;-89
2022/07/30 07:09:19;;;;;;;6.65;4.75;;;;;;;;;;6177247;23;20187;-88
2022/07/30 07:12:32;;;;;;;10.75;5.22;;;;;;;;;;6176737;23;20215;-89
2022/07/30 07:15:40;;;;;;;8.80;5.10;;;;;;;;;;6178918;23;20172;-89
2022/07/30 07:18:49;;;;;;;6.78;5.05;;;;;;;;;;6179881;23;20192;-89
2022/07/30 07:21:54;;;;;;;10.18;5.63;;;;;;;;;;6177105;23;20204;-88
2022/07/30 07:24:59;;;;;;;7.85;5.38;;;;;;;;;;6180324;23;20176;-90
2022/07/30 07:28:08;;;;;;;7.80;5.20;;;;;;;;;;6180613;23;20241;-91
2022/07/30 07:31:14;;;;;;;13.68;5.97;;;;;;;;;;6181039;23;20263;-89
2022/07/30 07:34:19;;;;;;;16.25;5.85;;;;;;;;;;6178305;23;20235;-87
2022/07/30 07:37:25;;;;;;;12.27;6.97;;;;;;;;;;6177841;23;20171;-90
2022/07/30 07:40:29;;;;;;;9.43;7.10;;;;;;;;;;6177490;23;20215;-88
2022/07/30 07:43:35;;;;;;;10.55;7.18;;;;;;;;;;6176158;23;20188;-89
2022/07/30 07:46:42;;;;;;;14.68;7.07;;;;;;;;;;6181109;23;20172;-88
2022/07/30 07:49:47;;;;;;;11.05;6.72;;;;;;;;;;6181408;23;20167;-89
2022/07/30 07:52:52;;;;;;;12.55;6.93;;;;;;;;;;6179608;23;20175;-90
2022/07/30 07:55:58;;;;;;;10.50;6.82;;;;;;;;;;6178697;23;20171;-89
2022/07/30 07:59:03;;;;;;;9.43;6.30;;;;;;;;;;6182607;23;20195;-89
2022/07/30 08:02:12;;;;;;;12.82;6.75;;;;;;;;;;6178243;23;20167;-89
2022/07/30 08:05:28;;;;;;;8.57;6.60;;;;;;;;;;6178774;23;20248;-89
2022/07/30 08:08:40;;;;;;;10.85;6.28;;;;;;;;;;6180533;23;20192;-90
2022/07/30 08:12:08;;;;;;;10.98;6.40;;;;;;;;;;6194444;23;20175;-91
2022/07/30 08:15:28;;;;;;;9.43;5.90;;;;;;;;;;6193313;23;20163;-91
2022/07/30 08:18:47;;;;;;;9.20;6.35;;;;;;;;;;6195530;23;20234;-91
2022/07/30 08:22:00;;;;;;;7.43;6.00;;;;;;;;;;6176131;23;20186;-91
2022/07/30 08:25:10;;;;;;;8.45;5.75;;;;;;;;;;6180753;23;20301;-90
2022/07/30 08:28:15;;;;;;;8.48;5.35;;;;;;;;;;6180148;23;20215;-90
2022/07/30 08:31:22;;;;;;;10.00;6.30;;;;;;;;;;6179504;23;20168;-91
2022/07/30 08:34:29;;;;;;;12.50;6.00;;;;;;;;;;6181071;23;20171;-90
2022/07/30 08:37:36;;;;;;;10.88;6.07;;;;;;;;;;6182152;23;20172;-89
2022/07/30 08:40:41;;;;;;;9.88;5.93;;;;;;;;;;6183390;23;20212;-89
2022/07/30 08:43:48;;;;;;;7.68;5.68;;;;;;;;;;6183288;23;20167;-91
2022/07/30 08:46:58;;;;;;;7.38;5.38;;;;;;;;;;6182836;23;20170;-91
2022/07/30 08:50:27;;;;;;;6.25;5.05;;;;;;;;;;6197420;23;20164;-90
2022/07/30 08:53:47;;;;;;;14.10;6.10;;;;;;;;;;6180787;23;20215;-90
2022/07/30 08:56:53;;;;;;;11.40;5.43;;;;;;;;;;6167048;23;20533;-89
2022/07/30 08:59:59;;;;;;;8.18;5.93;;;;;;;;;;6166245;23;20195;-90
2022/07/30 09:03:06;;;;;;;7.40;5.10;;;;;;;;;;6164396;23;20183;-91
2022/07/30 09:06:16;;;;;;;9.00;5.20;;;;;;;;;;6167050;23;20168;-91
2022/07/30 09:09:23;;;;;;;7.93;4.93;;;;;;;;;;6166867;23;20211;-91
2022/07/30 09:12:39;;;;;;;6.07;5.10;;;;;;;;;;6166435;23;20196;-91
2022/07/30 09:15:44;;;;;;;7.45;5.10;;;;;;;;;;6166043;23;20168;-89
2022/07/30 09:18:50;;;;;;;10.38;5.72;;;;;;;;;;6168000;23;20164;-89
2022/07/30 09:22:01;;;;;;;9.70;5.18;;;;;;;;;;6167395;23;20148;-89
2022/07/30 09:25:33;;;;;;;7.05;4.43;;;;;;;;;;6169080;23;20220;-90
2022/07/30 09:29:13;;;;;;;5.70;4.10;;;;;;;;;;6168382;23;20220;-90
2022/07/30 09:32:48;;;;;;;9.38;4.35;;;;;;;;;;6166643;23;20259;-90
2022/07/30 09:36:16;;;;;;;8.23;5.05;;;;;;;;;;6166955;23;20666;-90
2022/07/30 09:39:42;;;;;;;9.73;4.63;;;;;;;;;;6168926;23;20224;-90
2022/07/30 09:43:06;;;;;;;13.07;5.05;;;;;;;;;;6165958;23;20502;-90
2022/07/30 09:46:49;;;;;;;9.82;6.10;;;;;;;;;;6168412;23;20200;-89
2022/07/30 09:50:12;;;;;;;9.48;5.95;;;;;;;;;;6166567;23;20228;-89
2022/07/30 09:53:22;;;;;;;8.00;5.43;;;;;;;;;;6167707;23;20164;-90
2022/07/30 09:56:30;;;;;;;6.78;5.50;;;;;;;;;;6178686;23;20211;-91
2022/07/30 09:59:40;;;;;;;7.97;5.38;;;;;;;;;;6179399;23;20217;-91
2022/07/30 10:02:49;;;;;;;14.77;4.47;;;;;;;;;;6181142;23;20250;-90
2022/07/30 10:06:13;;;;;;;6.03;4.22;;;;;;;;;;6200835;23;20168;-89
2022/07/30 10:09:28;;;;;;;6.53;4.55;;;;;;;;;;6179988;23;20199;-92
2022/07/30 10:12:37;;;;;;;9.70;4.18;;;;;;;;;;6182141;23;20242;-91
2022/07/30 10:15:44;;;;;;;6.72;3.80;;;;;;;;;;6180136;23;20199;-90
2022/07/30 10:18:55;;;;;;;6.68;3.58;;;;;;;;;;6178877;23;20237;-90
2022/07/30 10:22:33;;;;;;;8.50;3.38;;;;;;;;;;6171695;23;20254;-89
2022/07/30 10:26:00;;;;;;;5.43;3.60;;;;;;;;;;6198245;23;20511;-90
2022/07/30 10:29:24;;;;;;;9.07;4.07;;;;;;;;;;6198181;23;20215;-90
2022/07/30 10:32:29;;;;;;;10.30;3.70;;;;;;;;;;6202099;23;20215;-90
2022/07/30 10:35:35;;;;;;;6.55;3.88;;;;;;;;;;6182594;23;20231;-90
2022/07/30 10:38:44;;;;;;;6.38;3.85;;;;;;;;;;6186994;23;20159;-89
2022/07/30 10:42:00;;;;;;;8.48;4.22;;;;;;;;;;6185119;23;20259;-89
2022/07/30 10:45:16;;;;;;;5.25;3.63;;;;;;;;;;6182618;23;20208;-91
2022/07/30 10:48:22;;;;;;;6.25;3.65;;;;;;;;;;6181737;23;20168;-90
2022/07/30 10:51:42;;;;;;;5.15;3.72;;;;;;;;;;6180756;23;20160;-91
2022/07/30 10:54:53;;;;;;;4.43;3.50;;;;;;;;;;6181814;23;20340;-91
2022/07/30 10:58:04;;;;;;;8.27;3.55;;;;;;;;;;6167316;23;20656;-91
2022/07/30 11:01:11;;;;;;;6.43;3.20;;;;;;;;;;6167545;23;20242;-90
2022/07/30 11:04:28;;;;;;;8.30;3.50;;;;;;;;;;6169579;23;20167;-90
2022/07/30 11:10:53;;;;;;;9.15;3.22;;;;;;;;;;6170869;23;20199;-90
2022/07/30 11:13:59;;;;;;;4.65;2.80;;;;;;;;;;6172812;23;20165;-89
2022/07/30 11:17:27;;;;;;;3.72;2.17;;;;;;;;;;6171512;23;20224;-90
2022/07/30 11:20:34;;;;;;;4.55;2.72;;;;;;;;;;6169258;23;20185;-91
2022/07/30 11:23:41;;;;;;;4.47;2.53;;;;;;;;;;6171101;23;20273;-90
2022/07/30 11:26:53;;;;;;;6.70;2.95;;;;;;;;;;6174214;23;20164;-90
2022/07/30 11:29:59;;;;;;;6.15;2.97;;;;;;;;;;6173088;23;20246;-90
2022/07/30 11:33:25;;;;;;;5.28;3.35;;;;;;;;;;6173138;23;20498;-90
2022/07/30 11:36:33;;;;;;;8.05;3.40;;;;;;;;;;6174709;23;20153;-90
2022/07/30 11:40:00;;;;;;;7.78;3.42;;;;;;;;;;6172746;23;20189;-90
2022/07/30 11:43:19;;;;;;;6.15;3.05;;;;;;;;;;6173577;23;20595;-91
2022/07/30 11:46:24;;;;;;;5.60;2.97;;;;;;;;;;6173320;23;20168;-89
2022/07/30 12:21:48;;;;;;;5.85;2.92;;;;;;;;;;6209147;22;20216;-90
2022/07/30 12:24:54;;;;;;;16.35;4.30;;;;;;;;;;6233474;23;20171;-90
2022/07/30 12:28:00;;;;;;;9.45;4.18;;;;;;;;;;6228526;23;20650;-87
2022/07/30 12:31:05;;;;;;;12.30;4.90;;;;;;;;;;6228573;23;20230;-87
2022/07/30 12:34:20;;;;;;;12.15;5.28;;;;;;;;;;6230845;23;20210;-88
2022/07/30 12:37:27;;;;;;;10.80;4.40;;;;;;;;;;6230856;23;20881;-90
2022/07/30 12:40:33;;;;;;;9.38;4.35;;;;;;;;;;6211982;23;20262;-88
2022/07/30 12:43:45;;;;;;;10.43;3.50;;;;;;;;;;6230100;23;20174;-89
2022/07/30 12:46:50;;;;;;;4.68;2.50;;;;;;;;;;6228044;23;20164;-89
2022/07/30 12:49:57;;;;;;;8.95;3.53;;;;;;;;;;6212625;23;20182;-89
2022/07/30 12:53:04;;;;;;;7.47;4.38;;;;;;;;;;6231697;23;20206;-89
2022/07/30 12:56:14;;;;;;;7.07;4.50;;;;;;;;;;6233667;23;20163;-89
2022/07/30 12:59:21;;;;;;;11.32;4.82;;;;;;;;;;6232884;23;20239;-89
2022/07/30 13:02:33;;;;;;;12.90;6.85;;;;;;;;;;6233754;23;20206;-90
2022/07/30 13:05:49;;;;;;;8.55;4.95;;;;;;;;;;6215573;23;20224;-90
2022/07/30 13:08:57;;;;;;;7.07;3.90;;;;;;;;;;6231738;23;20174;-90
2022/07/30 13:12:02;;;;;;;8.63;3.63;;;;;;;;;;6232553;23;20290;-91
2022/07/30 13:15:08;;;;;;;9.45;3.15;;;;;;;;;;6233517;22;20152;-91
2022/07/30 13:18:17;;;;;;;8.80;2.78;;;;;;;;;;6231466;23;20167;-89
2022/07/30 13:21:22;;;;;;;3.50;2.47;;;;;;;;;;6231922;23;20179;-90
2022/07/30 13:24:32;;;;;;;5.72;2.90;;;;;;;;;;6233178;23;20190;-90
2022/07/30 13:27:37;;;;;;;5.10;2.90;;;;;;;;;;6234719;23;20546;-89
2022/07/30 13:30:43;;;;;;;6.60;3.10;;;;;;;;;;6234445;23;20193;-90
2022/07/30 13:33:50;;;;;;;4.15;3.00;;;;;;;;;;6216208;23;20158;-90
2022/07/30 13:36:56;;;;;;;4.60;3.13;;;;;;;;;;6216828;23;20158;-89
2022/07/30 13:40:04;;;;;;;3.78;2.90;;;;;;;;;;6218242;23;20224;-88
2022/07/30 13:43:10;;;;;;;6.03;2.80;;;;;;;;;;6237195;23;20239;-91
2022/07/30 13:46:20;;;;;;;6.75;3.33;;;;;;;;;;6235950;23;20182;-90
2022/07/30 13:49:25;;;;;;;6.82;3.05;;;;;;;;;;6234557;23;20248;-90
2022/07/30 13:52:31;;;;;;;5.57;3.10;;;;;;;;;;6233463;23;20195;-90
2022/07/30 13:58:59;;;;;;;4.68;3.00;;;;;;;;;;6235361;23;20190;-88
2022/07/30 14:02:06;;;;;;;4.80;3.25;;;;;;;;;;6232950;23;20212;-88
2022/07/30 14:05:13;;;;;;;5.72;2.90;;;;;;;;;;6214581;23;20166;-90
2022/07/30 14:08:18;;;;;;;7.10;2.70;;;;;;;;;;6230778;23;20167;-91
2022/07/30 14:11:25;;;;;;;5.53;2.80;;;;;;;;;;6232348;23;20206;-89
2022/07/30 14:14:30;;;;;;;6.38;3.35;;;;;;;;;;6219284;23;20170;-90
2022/07/30 14:17:35;;;;;;;6.55;3.40;;;;;;;;;;6236314;23;20504;-89
2022/07/30 14:24:04;;;;;;;4.28;2.65;;;;;;;;;;6219921;23;20186;-88
2022/07/30 14:27:11;;;;;;;3.45;2.80;;;;;;;;;;6233847;23;20179;-89
2022/07/30 14:30:17;;;;;;;5.93;2.90;;;;;;;;;;6235735;23;20645;-90
2022/07/30 14:33:22;;;;;;;4.47;2.75;;;;;;;;;;6235175;23;20216;-89
2022/07/30 14:36:31;;;;;;;6.00;3.13;;;;;;;;;;6236691;23;20514;-90
2022/07/30 14:39:39;;;;;;;4.65;2.70;;;;;;;;;;6215700;23;20215;-89
2022/07/30 14:42:46;;;;;;;6.00;2.53;;;;;;;;;;6232104;23;20163;-90
2022/07/30 14:45:52;;;;;;;4.13;2.80;;;;;;;;;;6233698;23;20155;-91
2022/07/30 14:48:57;;;;;;;3.53;2.60;;;;;;;;;;6232708;23;20178;-89
2022/07/30 14:52:06;;;;;;;3.08;2.42;;;;;;;;;;6231357;23;20198;-90
2022/07/30 14:55:14;;;;;;;5.93;2.60;;;;;;;;;;6233919;23;20170;-88
2022/07/30 14:58:22;;;;;;;6.70;3.10;;;;;;;;;;6235517;23;20147;-89
2022/07/30 15:01:28;;;;;;;6.10;3.00;;;;;;;;;;6217224;23;20170;-90
2022/07/30 15:04:33;;;;;;;5.78;2.85;;;;;;;;;;6234604;22;20200;-89
2022/07/30 15:07:43;;;;;;;5.28;2.85;;;;;;;;;;6235674;22;20207;-90
2022/07/30 15:10:49;;;;;;;4.13;2.97;;;;;;;;;;6216980;23;20206;-89
2022/07/30 15:13:56;;;;;;;3.85;2.85;;;;;;;;;;6234341;23;20155;-88
2022/07/30 15:17:02;;;;;;;4.90;2.67;;;;;;;;;;6235575;23;20151;-89
2022/07/30 15:20:09;;;;;;;5.32;3.10;;;;;;;;;;6237343;23;20190;-89
2022/07/30 15:23:14;;;;;;;4.70;2.95;;;;;;;;;;6219584;22;20345;-89
2022/07/30 15:26:21;;;;;;;4.07;2.85;;;;;;;;;;6206906;23;20180;-90
2022/07/30 15:29:29;;;;;;;4.40;2.60;;;;;;;;;;6203652;23;20172;-90
2022/07/30 15:32:34;;;;;;;6.70;3.38;;;;;;;;;;6222381;23;20168;-88
2022/07/30 15:35:40;;;;;;;4.38;2.55;;;;;;;;;;6205864;23;20168;-89
2022/07/30 15:38:46;;;;;;;8.85;3.17;;;;;;;;;;6204868;23;20160;-90
2022/07/30 15:41:54;;;;;;;4.55;2.80;;;;;;;;;;6205627;23;20215;-91
2022/07/30 15:45:03;;;;;;;3.05;2.38;;;;;;;;;;6207390;23;20172;-89
2022/07/30 15:48:14;;;;;;;5.93;2.53;;;;;;;;;;6221158;23;20152;-87
2022/07/30 15:51:19;;;;;;;5.07;2.90;;;;;;;;;;6205663;23;20237;-90
2022/07/30 15:54:26;;;;;;;4.28;2.85;;;;;;;;;;6204684;23;20152;-91
2022/07/30 15:57:32;;;;;;;4.25;2.42;;;;;;;;;;6202836;23;20223;-90
2022/07/30 16:00:39;;;;;;;5.80;1.80;;;;;;;;;;6221805;22;20182;-90
2022/07/30 16:03:44;;;;;;;3.42;2.20;;;;;;;;;;6201948;23;20242;-89
2022/07/30 16:06:52;;;;;;;4.63;2.25;;;;;;;;;;6204075;23;20168;-90
2022/07/30 16:09:57;;;;;;;7.45;2.90;;;;;;;;;;6204470;23;20168;-89
2022/07/30 16:13:07;;;;;;;3.80;2.42;;;;;;;;;;6203612;23;20180;-91
2022/07/30 16:16:22;;;;;;;6.82;2.53;;;;;;;;;;6201004;23;20498;-89
2022/07/30 16:19:28;;;;;;;6.15;2.80;;;;;;;;;;6222137;23;20171;-90
2022/07/30 16:22:34;;;;;;;6.97;2.30;;;;;;;;;;6219414;23;20695;-89
2022/07/30 16:25:42;;;;;;;5.35;2.47;;;;;;;;;;6202749;23;20192;-90
2022/07/30 16:28:49;;;;;;;9.48;3.15;;;;;;;;;;6205781;23;20204;-90
2022/07/30 16:31:56;;;;;;;4.90;2.45;;;;;;;;;;6220309;22;20195;-89
2022/07/30 16:35:01;;;;;;;6.47;2.75;;;;;;;;;;6201594;23;20171;-90
2022/07/30 16:38:08;;;;;;;5.78;2.78;;;;;;;;;;6201918;23;20187;-91
2022/07/30 16:41:14;;;;;;;4.95;2.70;;;;;;;;;;6202715;23;20182;-88
2022/07/30 16:50:13;;;;;;;4.53;2.97;;;;;;;;;;6170076;22;20239;-89
2022/07/30 16:53:19;;;;;;;3.55;2.33;;;;;;;;;;6214265;23;20159;-90
2022/07/30 16:56:24;;;;;;;4.63;2.20;;;;;;;;;;6216708;23;20179;-89
2022/07/30 16:59:30;;;;;;;6.38;2.60;;;;;;;;;;6214669;23;20258;-89
2022/07/30 17:02:35;;;;;;;3.70;2.03;;;;;;;;;;6214053;23;20175;-88
2022/07/30 17:05:42;;;;;;;3.20;2.20;;;;;;;;;;6212178;23;20170;-89
2022/07/30 17:08:47;;;;;;;2.60;1.90;;;;;;;;;;6211072;23;20155;-89
2022/07/30 17:11:52;;;;;;;5.45;2.17;;;;;;;;;;6211146;23;20194;-89
2022/07/30 17:14:58;;;;;;;2.88;2.00;;;;;;;;;;6212309;23;20175;-88
2022/07/30 17:18:03;;;;;;;2.40;1.98;;;;;;;;;;6211171;23;20170;-90
2022/07/30 17:21:10;;;;;;;4.05;1.88;;;;;;;;;;6210220;23;20203;-90
2022/07/30 17:24:15;;;;;;;3.75;1.95;;;;;;;;;;6208423;23;20168;-90
2022/07/30 17:27:21;;;;;;;2.47;1.70;;;;;;;;;;6210636;23;20214;-90
2022/07/30 17:30:26;;;;;;;2.47;2.00;;;;;;;;;;6210178;23;20221;-90
2022/07/30 17:33:31;;;;;;;3.00;2.20;;;;;;;;;;6210086;23;20167;-90
2022/07/30 17:36:38;;;;;;;2.97;2.05;;;;;;;;;;6211753;23;20179;-90
2022/07/30 17:39:50;;;;;;;4.03;2.40;;;;;;;;;;6233452;23;20164;-91
2022/07/30 17:43:12;;;;;;;3.65;2.00;;;;;;;;;;6230528;23;20283;-89
2022/07/30 17:46:18;;;;;;;4.97;2.50;;;;;;;;;;6212238;23;20171;-89
2022/07/30 17:49:23;;;;;;;3.50;2.40;;;;;;;;;;6214267;23;20152;-89
2022/07/30 17:52:33;;;;;;;6.78;2.45;;;;;;;;;;6213796;23;20278;-89
2022/07/30 17:55:39;;;;;;;2.90;2.10;;;;;;;;;;6214757;23;20159;-89
2022/07/30 17:58:44;;;;;;;3.80;2.13;;;;;;;;;;6215222;23;20167;-90
2022/07/30 18:01:50;;;;;;;3.38;2.10;;;;;;;;;;6215830;23;20175;-89
2022/07/30 18:04:58;;;;;;;5.38;2.20;;;;;;;;;;6233160;23;20503;-89
2022/07/30 18:08:08;;;;;;;5.97;2.70;;;;;;;;;;6214687;23;20198;-90
2022/07/30 18:11:14;;;;;;;4.55;2.28;;;;;;;;;;6215636;23;20210;-91
2022/07/30 18:14:22;;;;;;;7.03;2.38;;;;;;;;;;6213932;23;20167;-90
2022/07/30 18:17:29;;;;;;;5.20;2.45;;;;;;;;;;6216456;23;20202;-89
2022/07/30 18:20:47;;;;;;;3.13;2.47;;;;;;;;;;6215828;23;20163;-90
2022/07/30 18:23:58;;;;;;;4.65;2.47;;;;;;;;;;6216611;23;20222;-89
2022/07/30 18:27:03;;;;;;;5.60;2.25;;;;;;;;;;6216592;23;20221;-90
2022/07/30 18:30:12;;;;;;;5.20;2.80;;;;;;;;;;6215707;23;20262;-89
2022/07/30 18:33:20;;;;;;;5.85;2.30;;;;;;;;;;6216333;23;20213;-89
2022/07/30 18:36:28;;;;;;;7.97;2.75;;;;;;;;;;6215122;23;20284;-89
2022/07/30 18:39:39;;;;;;;5.13;2.67;;;;;;;;;;6214521;23;20171;-89
2022/07/30 18:42:51;;;;;;;4.80;2.50;;;;;;;;;;6217164;23;20224;-90
2022/07/30 18:45:57;;;;;;;6.85;2.85;;;;;;;;;;6215208;23;20220;-89
2022/07/30 18:49:04;;;;;;;3.90;2.63;;;;;;;;;;6215812;23;20210;-89
2022/07/30 18:52:09;;;;;;;5.43;3.13;;;;;;;;;;6213774;23;20194;-88
2022/07/30 18:55:19;;;;;;;5.38;3.50;;;;;;;;;;6215745;23;20171;-90
2022/07/30 18:58:25;;;;;;;7.13;3.55;;;;;;;;;;6215588;23;20226;-90
2022/07/30 19:01:30;;;;;;;8.43;2.95;;;;;;;;;;6215195;23;20167;-89
2022/07/30 19:04:36;;;;;;;8.02;2.75;;;;;;;;;;6214210;23;20214;-90
2022/07/30 19:07:42;;;;;;;7.47;3.17;;;;;;;;;;6232255;23;20232;-89
2022/07/30 19:10:51;;;;;;;6.10;2.90;;;;;;;;;;6213007;23;20155;-89
2022/07/30 19:14:17;;;;;;;5.75;3.25;;;;;;;;;;6217082;23;20244;-90
2022/07/30 19:17:23;;;;;;;19.70;9.07;;;;;;;;;;6199311;23;20704;-91
2022/07/30 19:20:30;;;;;;;7.25;4.22;;;;;;;;;;6237216;23;20171;-89
2022/07/30 19:23:49;;;;;;;4.80;3.00;;;;;;;;;;6221590;23;20174;-89
2022/07/30 19:26:59;;;;;;;4.93;2.80;;;;;;;;;;6216834;23;20175;-89
2022/07/30 19:30:06;;;;;;;5.07;2.70;;;;;;;;;;6216342;23;20159;-90
2022/07/30 19:33:11;;;;;;;5.82;3.45;;;;;;;;;;6216896;23;20198;-90
2022/07/30 19:36:19;;;;;;;4.50;2.20;;;;;;;;;;6215869;23;20218;-87
2022/07/30 19:39:30;;;;;;;3.15;2.50;;;;;;;;;;6214779;23;20202;-89
2022/07/30 19:42:38;;;;;;;6.55;2.90;;;;;;;;;;6217173;23;20220;-90
2022/07/30 19:45:46;;;;;;;5.63;2.35;;;;;;;;;;6200008;23;20179;-89
2022/07/30 19:48:51;;;;;;;6.50;3.00;;;;;;;;;;6214704;23;20171;-90
2022/07/30 19:51:56;;;;;;;5.40;3.35;;;;;;;;;;6204363;23;20191;-91
2022/07/30 19:55:01;;;;;;;6.88;3.15;;;;;;;;;;6202376;23;20223;-89
2022/07/30 19:58:10;;;;;;;8.65;3.50;;;;;;;;;;6200930;23;20243;-89
2022/07/30 20:01:20;;;;;;;6.68;3.28;;;;;;;;;;6199946;23;20224;-88
2022/07/30 20:04:25;;;;;;;4.28;2.83;;;;;;;;;;6200391;23;20180;-89
2022/07/30 20:07:30;;;;;;;7.20;2.83;;;;;;;;;;6198560;23;20195;-89
2022/07/30 20:10:36;;;;;;;8.68;2.72;;;;;;;;;;6198723;23;20208;-89
2022/07/30 20:13:44;;;;;;;7.15;2.60;;;;;;;;;;6198354;23;20620;-88
2022/07/30 20:20:10;;;;;;;4.82;2.70;;;;;;;;;;6200967;23;20221;-89
2022/07/30 20:23:16;;;;;;;3.58;2.40;;;;;;;;;;6198263;23;20204;-88
2022/07/30 20:26:21;;;;;;;8.85;3.15;;;;;;;;;;6199741;23;20162;-90
2022/07/30 20:29:28;;;;;;;4.72;2.60;;;;;;;;;;6198296;23;20172;-89
2022/07/30 20:32:34;;;;;;;6.03;2.65;;;;;;;;;;6182836;23;20211;-89
2022/07/30 20:35:41;;;;;;;8.40;5.22;;;;;;;;;;6200829;23;20268;-89
2022/07/30 20:38:48;;;;;;;6.28;3.42;;;;;;;;;;6199419;23;20171;-91
2022/07/30 20:42:06;;;;;;;7.15;3.30;;;;;;;;;;6200286;23;20223;-89